createdAt,value
2017-09-13T00:00:42.633Z,11.39
2017-09-13T00:01:42.337Z,11.43
2017-09-13T00:02:42.046Z,11.4
2017-09-13T00:03:42.370Z,11.42
2017-09-13T00:04:42.722Z,11.42
2017-09-13T00:05:42.411Z,11.35
2017-09-13T00:06:42.433Z,11.32
2017-09-13T00:07:57.382Z,11.39
2017-09-13T00:08:57.404Z,11.37
2017-09-13T00:09:42.823Z,11.33
2017-09-13T00:10:42.830Z,11.37
2017-09-13T00:11:42.861Z,11.27
2017-09-13T00:12:42.881Z,11.29
2017-09-13T00:13:42.912Z,11.32
2017-09-13T00:14:42.605Z,11.32
2017-09-13T00:16:42.955Z,11.32
2017-09-13T00:17:42.985Z,11.32
2017-09-13T00:18:43.021Z,11.39
2017-09-13T00:19:43.081Z,11.27
2017-09-13T00:20:42.728Z,11.29
2017-09-13T00:21:43.055Z,11.32
2017-09-13T00:22:43.092Z,11.27
2017-09-13T00:23:57.732Z,11.28
2017-09-13T00:25:43.160Z,11.27
2017-09-13T00:26:43.189Z,11.29
2017-09-13T00:27:43.187Z,11.32
2017-09-13T00:28:43.216Z,11.35
2017-09-13T00:29:42.924Z,11.27
2017-09-13T00:30:43.246Z,11.24
2017-09-13T00:31:42.973Z,11.17
2017-09-13T00:32:43.288Z,11.25
2017-09-13T00:33:43.331Z,11.15
2017-09-13T00:34:43.040Z,11.24
2017-09-13T00:36:43.395Z,11.15
2017-09-13T00:37:43.416Z,11.15
2017-09-13T00:38:43.109Z,11.06
2017-09-13T00:39:58.064Z,11.04
2017-09-13T00:41:43.489Z,10.92
2017-09-13T00:42:43.207Z,10.97
2017-09-13T00:43:43.534Z,10.92
2017-09-13T00:44:43.551Z,11
2017-09-13T00:45:43.581Z,11.04
2017-09-13T00:46:43.595Z,10.99
2017-09-13T00:47:43.610Z,11.03
2017-09-13T00:48:43.635Z,10.99
2017-09-13T00:49:43.350Z,11.06
2017-09-13T00:50:43.685Z,10.99
2017-09-13T00:52:43.721Z,11
2017-09-13T00:53:43.740Z,10.97
2017-09-13T00:54:43.757Z,10.97
2017-09-13T00:55:58.396Z,11.11
2017-09-13T00:56:43.189Z,11.09
2017-09-13T00:57:43.203Z,11.04
2017-09-13T00:58:43.853Z,11.04
2017-09-13T01:00:43.606Z,10.96
2017-09-13T01:01:43.916Z,10.89
2017-09-13T01:02:43.925Z,10.91
2017-09-13T01:03:43.990Z,10.86
2017-09-13T01:04:43.970Z,10.88
2017-09-13T01:05:43.986Z,10.86
2017-09-13T01:06:44.019Z,10.86
2017-09-13T01:08:44.054Z,10.76
2017-09-13T01:09:43.769Z,10.74
2017-09-13T01:10:58.722Z,10.74
2017-09-13T01:11:44.134Z,10.79
2017-09-13T01:12:44.133Z,10.71
2017-09-13T01:13:44.166Z,10.68
2017-09-13T01:14:43.873Z,10.68
2017-09-13T01:15:44.223Z,10.59
2017-09-13T01:16:44.225Z,10.68
2017-09-13T01:17:44.261Z,10.6
2017-09-13T01:18:44.267Z,10.63
2017-09-13T01:19:44.284Z,10.56
2017-09-13T01:20:44.301Z,10.52
2017-09-13T01:21:44.338Z,10.51
2017-09-13T01:22:44.350Z,10.47
2017-09-13T01:23:44.371Z,10.47
2017-09-13T01:24:44.389Z,10.48
2017-09-13T01:25:44.421Z,10.38
2017-09-13T01:26:44.128Z,10.33
2017-09-13T01:27:44.455Z,10.41
2017-09-13T01:28:44.467Z,10.36
2017-09-13T01:30:44.513Z,10.44
2017-09-13T01:31:44.236Z,10.33
2017-09-13T01:32:44.551Z,10.32
2017-09-13T01:33:44.584Z,10.29
2017-09-13T01:34:44.607Z,10.25
2017-09-13T01:35:44.628Z,10.26
2017-09-13T01:36:59.310Z,10.32
2017-09-13T01:37:44.664Z,10.36
2017-09-13T01:38:44.370Z,10.22
2017-09-13T01:39:44.707Z,10.25
2017-09-13T01:40:44.728Z,10.3
2017-09-13T01:41:44.749Z,10.26
2017-09-13T01:42:59.380Z,10.27
2017-09-13T01:43:44.780Z,10.23
2017-09-13T01:44:44.807Z,10.18
2017-09-13T01:45:44.830Z,10.22
2017-09-13T01:46:44.841Z,10.17
2017-09-13T01:47:44.872Z,10.23
2017-09-13T01:48:44.903Z,10.23
2017-09-13T01:49:44.906Z,10.17
2017-09-13T01:50:44.938Z,10.22
2017-09-13T01:51:44.953Z,10.18
2017-09-13T01:52:44.977Z,10.12
2017-09-13T01:53:44.682Z,10.22
2017-09-13T01:54:45.019Z,10.15
2017-09-13T01:55:59.653Z,10.12
2017-09-13T01:56:45.049Z,10.2
2017-09-13T01:57:45.079Z,10.09
2017-09-13T01:59:45.120Z,10.07
2017-09-13T02:00:45.138Z,10.02
2017-09-13T02:01:59.770Z,10.02
2017-09-13T02:02:44.866Z,9.99
2017-09-13T02:03:45.196Z,10.08
2017-09-13T02:04:45.239Z,10.01
2017-09-13T02:05:45.286Z,10.01
2017-09-13T02:06:45.262Z,9.99
2017-09-13T02:07:45.275Z,10.07
2017-09-13T02:08:44.993Z,10.07
2017-09-13T02:09:45.365Z,9.97
2017-09-13T02:10:45.372Z,10.08
2017-09-13T02:11:45.053Z,10.02
2017-09-13T02:12:45.395Z,10.01
2017-09-13T02:13:45.408Z,9.99
2017-09-13T02:15:00.046Z,10.01
2017-09-13T02:15:59.761Z,9.96
2017-09-13T02:16:45.467Z,10.02
2017-09-13T02:17:45.480Z,9.96
2017-09-13T02:18:45.512Z,9.97
2017-09-13T02:19:44.917Z,10.05
2017-09-13T02:20:45.233Z,10.04
2017-09-13T02:21:45.264Z,9.94
2017-09-13T02:22:45.274Z,10.01
2017-09-13T02:23:45.610Z,9.97
2017-09-13T02:25:00.256Z,9.99
2017-09-13T02:25:45.662Z,9.99
2017-09-13T02:26:45.668Z,9.93
2017-09-13T02:27:45.696Z,9.91
2017-09-13T02:28:45.727Z,9.97
2017-09-13T02:31:00.386Z,9.93
2017-09-13T02:31:45.779Z,10.08
2017-09-13T02:32:45.486Z,9.97
2017-09-13T02:33:45.825Z,9.97
2017-09-13T02:34:45.842Z,10.05
2017-09-13T02:35:45.547Z,10.05
2017-09-13T02:36:45.886Z,10.04
2017-09-13T02:38:00.522Z,9.97
2017-09-13T02:38:45.614Z,9.99
2017-09-13T02:39:45.934Z,9.97
2017-09-13T02:40:45.961Z,10.01
2017-09-13T02:42:45.999Z,9.97
2017-09-13T02:43:46.026Z,10.01
2017-09-13T02:44:46.035Z,9.94
2017-09-13T02:46:00.685Z,9.94
2017-09-13T02:47:46.117Z,9.99
2017-09-13T02:48:46.196Z,9.97
2017-09-13T02:49:46.150Z,10.08
2017-09-13T02:50:46.172Z,10.02
2017-09-13T02:51:46.183Z,10.12
2017-09-13T02:52:46.207Z,10.09
2017-09-13T02:53:46.236Z,10.05
2017-09-13T02:54:46.256Z,10.14
2017-09-13T02:55:46.268Z,10.05
2017-09-13T02:56:46.281Z,10.23
2017-09-13T02:57:46.311Z,10.18
2017-09-13T02:58:46.342Z,10.18
2017-09-13T02:59:46.039Z,10.23
2017-09-13T03:00:46.367Z,10.22
2017-09-13T03:01:46.390Z,10.22
2017-09-13T03:02:46.417Z,10.15
2017-09-13T03:04:00.740Z,10.2
2017-09-13T03:04:46.135Z,10.23
2017-09-13T03:05:46.479Z,10.27
2017-09-13T03:06:46.491Z,10.2
2017-09-13T03:07:46.512Z,10.2
2017-09-13T03:08:46.229Z,10.29
2017-09-13T03:09:46.239Z,10.15
2017-09-13T03:10:46.574Z,10.17
2017-09-13T03:11:46.593Z,10.18
2017-09-13T03:12:46.621Z,10.17
2017-09-13T03:13:46.675Z,10.17
2017-09-13T03:14:46.664Z,10.05
2017-09-13T03:15:46.742Z,10.02
2017-09-13T03:17:01.009Z,10.05
2017-09-13T03:18:01.340Z,10.02
2017-09-13T03:18:46.431Z,10.05
2017-09-13T03:19:46.758Z,10.11
2017-09-13T03:21:01.393Z,10.2
2017-09-13T03:21:46.488Z,10.11
2017-09-13T03:22:46.834Z,10.18
2017-09-13T03:23:46.847Z,10.18
2017-09-13T03:24:46.853Z,10.25
2017-09-13T03:25:46.881Z,10.22
2017-09-13T03:26:46.908Z,10.2
2017-09-13T03:27:46.618Z,10.22
2017-09-13T03:28:46.633Z,10.14
2017-09-13T03:29:46.658Z,10.17
2017-09-13T03:30:46.994Z,10.18
2017-09-13T03:31:47.018Z,10.17
2017-09-13T03:32:47.017Z,10.18
2017-09-13T03:34:01.690Z,10.22
2017-09-13T03:34:46.752Z,10.26
2017-09-13T03:35:47.092Z,10.27
2017-09-13T03:36:47.106Z,10.25
2017-09-13T03:37:47.126Z,10.2
2017-09-13T03:38:47.158Z,10.3
2017-09-13T03:39:47.165Z,10.17
2017-09-13T03:40:47.197Z,10.23
2017-09-13T03:41:47.214Z,10.22
2017-09-13T03:43:01.850Z,10.22
2017-09-13T03:43:47.249Z,10.17
2017-09-13T03:44:47.274Z,10.17
2017-09-13T03:45:47.294Z,10.18
2017-09-13T03:46:46.684Z,10.27
2017-09-13T03:47:47.324Z,10.15
2017-09-13T03:48:47.047Z,10.15
2017-09-13T03:50:01.987Z,10.22
2017-09-13T03:50:47.403Z,10.17
2017-09-13T03:51:47.101Z,10.11
2017-09-13T03:52:47.440Z,10.07
2017-09-13T03:53:47.462Z,10.23
2017-09-13T03:54:47.472Z,10.17
2017-09-13T03:55:47.492Z,10.09
2017-09-13T03:56:47.519Z,10.05
2017-09-13T03:57:47.218Z,10.07
2017-09-13T03:58:47.547Z,10.18
2017-09-13T03:59:47.587Z,10.07
2017-09-13T04:00:47.594Z,10.05
2017-09-13T04:01:47.620Z,10.08
2017-09-13T04:03:47.657Z,9.94
2017-09-13T04:04:47.673Z,10.04
2017-09-13T04:06:02.320Z,10.14
2017-09-13T04:06:47.726Z,10.15
2017-09-13T04:07:47.739Z,10.12
2017-09-13T04:08:47.757Z,10.02
2017-09-13T04:09:47.781Z,10.12
2017-09-13T04:11:02.424Z,9.94
2017-09-13T04:11:47.517Z,10.04
2017-09-13T04:12:47.837Z,10.01
2017-09-13T04:13:47.861Z,10.05
2017-09-13T04:14:47.570Z,10.01
2017-09-13T04:15:47.592Z,10.02
2017-09-13T04:16:47.916Z,10.07
2017-09-13T04:17:47.633Z,10.04
2017-09-13T04:18:47.978Z,10.04
2017-09-13T04:19:47.981Z,9.99
2017-09-13T04:21:02.622Z,9.96
2017-09-13T04:21:48.025Z,9.97
2017-09-13T04:22:47.736Z,10.07
2017-09-13T04:24:48.091Z,10.04
2017-09-13T04:25:48.098Z,10.07
2017-09-13T04:26:48.119Z,10.17
2017-09-13T04:27:48.155Z,10.05
2017-09-13T04:28:48.165Z,10.07
2017-09-13T04:29:48.177Z,10.09
2017-09-13T04:30:48.209Z,10.11
2017-09-13T04:31:48.238Z,9.93
2017-09-13T04:32:48.250Z,10.09
2017-09-13T04:33:48.278Z,10.05
2017-09-13T04:34:48.277Z,10.17
2017-09-13T04:35:48.306Z,10.18
2017-09-13T04:36:48.334Z,10.15
2017-09-13T04:37:48.039Z,10.15
2017-09-13T04:38:48.055Z,10.18
2017-09-13T04:40:03.002Z,10.23
2017-09-13T04:40:48.423Z,10.15
2017-09-13T04:41:48.437Z,10.26
2017-09-13T04:42:48.440Z,10.25
2017-09-13T04:43:48.464Z,10.38
2017-09-13T04:44:48.181Z,10.38
2017-09-13T04:45:48.516Z,10.34
2017-09-13T04:46:48.223Z,10.25
2017-09-13T04:47:48.557Z,10.29
2017-09-13T04:48:48.575Z,10.33
2017-09-13T04:49:48.275Z,10.45
2017-09-13T04:50:48.622Z,10.48
2017-09-13T04:51:48.634Z,10.56
2017-09-13T04:53:03.270Z,10.64
2017-09-13T04:53:48.664Z,10.63
2017-09-13T04:54:48.724Z,10.66
2017-09-13T04:56:03.328Z,10.66
2017-09-13T04:56:48.743Z,10.79
2017-09-13T04:57:48.449Z,10.73
2017-09-13T04:58:48.478Z,10.85
2017-09-13T04:59:48.484Z,10.71
2017-09-13T05:00:48.823Z,10.78
2017-09-13T05:02:03.457Z,10.84
2017-09-13T05:02:48.559Z,10.84
2017-09-13T05:03:48.582Z,10.92
2017-09-13T05:04:48.599Z,11
2017-09-13T05:05:48.603Z,10.99
2017-09-13T05:06:48.628Z,11.1
2017-09-13T05:07:48.962Z,11.11
2017-09-13T05:09:03.291Z,11.22
2017-09-13T05:09:48.694Z,11.27
2017-09-13T05:10:48.404Z,11.24
2017-09-13T05:11:49.049Z,11.21
2017-09-13T05:12:49.053Z,11.36
2017-09-13T05:13:49.103Z,11.42
2017-09-13T05:14:49.114Z,11.37
2017-09-13T05:16:48.839Z,11.36
2017-09-13T05:17:48.867Z,11.35
2017-09-13T05:18:49.193Z,11.42
2017-09-13T05:19:49.215Z,11.47
2017-09-13T05:20:49.221Z,11.46
2017-09-13T05:21:49.261Z,11.44
2017-09-13T05:22:49.265Z,11.49
2017-09-13T05:23:48.980Z,11.42
2017-09-13T05:25:03.926Z,11.46
2017-09-13T05:25:49.339Z,11.49
2017-09-13T05:26:49.351Z,11.54
2017-09-13T05:27:49.379Z,11.46
2017-09-13T05:29:49.421Z,11.51
2017-09-13T05:30:49.454Z,11.43
2017-09-13T05:32:49.474Z,11.55
2017-09-13T05:33:49.490Z,11.47
2017-09-13T05:34:49.211Z,11.51
2017-09-13T05:35:48.925Z,11.49
2017-09-13T05:36:49.257Z,11.44
2017-09-13T05:37:49.278Z,11.57
2017-09-13T05:38:49.595Z,11.62
2017-09-13T05:41:04.263Z,11.67
2017-09-13T05:41:49.363Z,11.62
2017-09-13T05:42:49.682Z,11.64
2017-09-13T05:43:49.709Z,11.75
2017-09-13T05:44:49.110Z,11.73
2017-09-13T05:45:49.791Z,11.75
2017-09-13T05:46:49.773Z,11.83
2017-09-13T05:47:49.791Z,11.94
2017-09-13T05:48:49.803Z,12.05
2017-09-13T05:49:49.839Z,12.04
2017-09-13T05:50:49.845Z,12.12
2017-09-13T05:51:49.570Z,12.27
2017-09-13T05:52:49.895Z,12.27
2017-09-13T05:54:49.623Z,12.32
2017-09-13T05:56:04.263Z,12.24
2017-09-13T05:56:49.671Z,12.37
2017-09-13T05:57:49.684Z,12.37
2017-09-13T05:58:50.033Z,12.34
2017-09-13T05:59:49.740Z,12.39
2017-09-13T06:00:49.752Z,12.46
2017-09-13T06:01:49.778Z,12.42
2017-09-13T06:02:49.797Z,12.41
2017-09-13T06:03:49.817Z,12.53
2017-09-13T06:04:49.854Z,12.5
2017-09-13T06:05:49.849Z,12.67
2017-09-13T06:06:49.889Z,12.68
2017-09-13T06:07:49.902Z,12.64
2017-09-13T06:08:49.924Z,12.68
2017-09-13T06:09:50.249Z,12.68
2017-09-13T06:10:50.338Z,12.75
2017-09-13T06:11:50.293Z,12.79
2017-09-13T06:12:50.323Z,12.79
2017-09-13T06:13:50.346Z,12.86
2017-09-13T06:14:50.358Z,12.82
2017-09-13T06:15:50.388Z,12.83
2017-09-13T06:16:50.398Z,12.82
2017-09-13T06:17:50.422Z,12.82
2017-09-13T06:18:50.451Z,12.79
2017-09-13T06:19:50.472Z,12.7
2017-09-13T06:21:05.107Z,12.79
2017-09-13T06:21:50.194Z,12.65
2017-09-13T06:22:50.564Z,12.68
2017-09-13T06:23:50.559Z,12.64
2017-09-13T06:24:50.579Z,12.64
2017-09-13T06:25:50.298Z,12.65
2017-09-13T06:26:50.624Z,12.65
2017-09-13T06:28:04.947Z,12.72
2017-09-13T06:28:50.656Z,12.74
2017-09-13T06:29:50.684Z,12.74
2017-09-13T06:30:50.704Z,12.75
2017-09-13T06:31:50.412Z,12.72
2017-09-13T06:32:50.733Z,12.75
2017-09-13T06:33:50.760Z,12.74
2017-09-13T06:34:50.788Z,12.65
2017-09-13T06:35:50.810Z,12.75
2017-09-13T06:36:50.832Z,12.67
2017-09-13T06:37:50.851Z,12.67
2017-09-13T06:38:50.562Z,12.62
2017-09-13T06:39:50.881Z,12.67
2017-09-13T06:40:50.919Z,12.65
2017-09-13T06:41:50.319Z,12.67
2017-09-13T06:42:50.965Z,12.64
2017-09-13T06:44:05.599Z,12.64
2017-09-13T06:44:51.000Z,12.68
2017-09-13T06:45:51.059Z,12.7
2017-09-13T06:46:50.721Z,12.65
2017-09-13T06:47:51.062Z,12.79
2017-09-13T06:48:51.071Z,12.87
2017-09-13T06:49:50.800Z,12.83
2017-09-13T06:50:51.127Z,12.87
2017-09-13T06:51:50.840Z,12.85
2017-09-13T06:53:50.879Z,12.89
2017-09-13T06:54:50.897Z,12.92
2017-09-13T06:55:50.913Z,12.97
2017-09-13T06:56:51.251Z,12.96
2017-09-13T06:57:51.261Z,13
2017-09-13T06:58:51.300Z,13.05
2017-09-13T07:00:05.631Z,13
2017-09-13T07:00:51.344Z,12.97
2017-09-13T07:01:51.359Z,12.96
2017-09-13T07:02:51.382Z,12.97
2017-09-13T07:04:51.414Z,12.95
2017-09-13T07:05:51.436Z,12.96
2017-09-13T07:07:51.495Z,13.07
2017-09-13T07:08:51.503Z,13.01
2017-09-13T07:09:50.914Z,13.15
2017-09-13T07:10:51.557Z,13.19
2017-09-13T07:12:51.288Z,13.25
2017-09-13T07:13:51.618Z,13.32
2017-09-13T07:14:51.324Z,13.33
2017-09-13T07:16:06.277Z,13.3
2017-09-13T07:16:51.683Z,13.28
2017-09-13T07:17:51.694Z,13.3
2017-09-13T07:18:51.415Z,13.25
2017-09-13T07:19:51.733Z,13.33
2017-09-13T07:20:51.449Z,13.41
2017-09-13T07:21:51.477Z,13.41
2017-09-13T07:22:51.815Z,13.33
2017-09-13T07:23:51.832Z,13.32
2017-09-13T07:24:51.853Z,13.38
2017-09-13T07:25:51.877Z,13.51
2017-09-13T07:28:06.533Z,13.41
2017-09-13T07:28:51.623Z,13.38
2017-09-13T07:30:06.570Z,13.51
2017-09-13T07:31:06.595Z,13.36
2017-09-13T07:31:52.003Z,13.3
2017-09-13T07:32:52.029Z,13.42
2017-09-13T07:33:52.035Z,13.44
2017-09-13T07:34:51.763Z,13.39
2017-09-13T07:36:52.120Z,13.36
2017-09-13T07:37:51.818Z,13.46
2017-09-13T07:38:52.152Z,13.57
2017-09-13T07:39:52.162Z,13.63
2017-09-13T07:40:51.890Z,13.66
2017-09-13T07:41:52.218Z,13.75
2017-09-13T07:42:51.923Z,13.79
2017-09-13T07:43:51.949Z,13.88
2017-09-13T07:44:51.976Z,13.87
2017-09-13T07:45:52.309Z,13.78
2017-09-13T07:46:52.317Z,13.75
2017-09-13T07:47:52.028Z,13.81
2017-09-13T07:48:52.368Z,13.75
2017-09-13T07:49:52.080Z,13.75
2017-09-13T07:50:52.100Z,13.71
2017-09-13T07:51:52.122Z,13.78
2017-09-13T07:52:52.146Z,13.64
2017-09-13T07:53:52.171Z,13.64
2017-09-13T07:54:52.507Z,13.67
2017-09-13T07:55:52.213Z,13.77
2017-09-13T07:56:52.234Z,13.77
2017-09-13T07:57:52.567Z,13.78
2017-09-13T07:58:52.584Z,13.92
2017-09-13T07:59:51.994Z,13.95
2017-09-13T08:00:52.636Z,13.85
2017-09-13T08:01:52.352Z,13.91
2017-09-13T08:03:07.296Z,13.89
2017-09-13T08:03:52.703Z,13.89
2017-09-13T08:04:52.725Z,13.99
2017-09-13T08:06:07.351Z,13.89
2017-09-13T08:06:52.764Z,13.92
2017-09-13T08:07:52.842Z,13.89
2017-09-13T08:08:52.811Z,13.89
2017-09-13T08:09:52.860Z,13.88
2017-09-13T08:10:52.847Z,13.75
2017-09-13T08:12:07.489Z,13.67
2017-09-13T08:12:52.895Z,13.67
2017-09-13T08:13:52.917Z,13.64
2017-09-13T08:14:52.320Z,13.75
2017-09-13T08:16:07.607Z,13.7
2017-09-13T08:16:52.664Z,13.67
2017-09-13T08:17:52.997Z,13.69
2017-09-13T08:19:07.639Z,13.63
2017-09-13T08:19:52.735Z,13.64
2017-09-13T08:20:53.073Z,13.69
2017-09-13T08:21:53.096Z,13.63
2017-09-13T08:22:53.107Z,13.64
2017-09-13T08:23:52.818Z,13.6
2017-09-13T08:24:52.843Z,13.63
2017-09-13T08:25:53.167Z,13.62
2017-09-13T08:26:53.203Z,13.64
2017-09-13T08:27:52.917Z,13.63
2017-09-13T08:29:07.861Z,13.62
2017-09-13T08:29:53.258Z,13.69
2017-09-13T08:31:53.299Z,13.64
2017-09-13T08:32:53.025Z,13.62
2017-09-13T08:33:53.345Z,13.48
2017-09-13T08:35:07.980Z,13.57
2017-09-13T08:35:53.387Z,13.62
2017-09-13T08:36:53.425Z,13.64
2017-09-13T08:37:53.435Z,13.59
2017-09-13T08:38:53.472Z,13.6
2017-09-13T08:39:53.170Z,13.64
2017-09-13T08:40:53.498Z,13.66
2017-09-13T08:41:53.515Z,13.59
2017-09-13T08:43:08.165Z,13.62
2017-09-13T08:43:53.554Z,13.63
2017-09-13T08:45:08.207Z,13.75
2017-09-13T08:45:53.609Z,13.88
2017-09-13T08:46:53.629Z,13.84
2017-09-13T08:47:53.657Z,13.79
2017-09-13T08:48:53.664Z,13.92
2017-09-13T08:49:53.687Z,13.96
2017-09-13T08:51:08.332Z,13.91
2017-09-13T08:51:53.739Z,13.91
2017-09-13T08:52:53.756Z,13.89
2017-09-13T08:53:53.786Z,13.79
2017-09-13T08:54:53.502Z,13.7
2017-09-13T08:55:53.510Z,13.67
2017-09-13T08:57:53.301Z,13.63
2017-09-13T08:58:53.900Z,13.63
2017-09-13T09:00:08.532Z,13.64
2017-09-13T09:00:53.934Z,13.62
2017-09-13T09:01:53.946Z,13.64
2017-09-13T09:02:53.973Z,13.6
2017-09-13T09:03:53.997Z,13.66
2017-09-13T09:04:54.017Z,13.6
2017-09-13T09:06:08.655Z,13.51
2017-09-13T09:06:54.079Z,13.57
2017-09-13T09:07:54.085Z,13.54
2017-09-13T09:08:53.790Z,13.49
2017-09-13T09:09:53.824Z,13.57
2017-09-13T09:10:53.845Z,13.48
2017-09-13T09:11:54.180Z,13.57
2017-09-13T09:12:54.198Z,13.59
2017-09-13T09:13:53.908Z,13.51
2017-09-13T09:14:54.244Z,13.52
2017-09-13T09:15:53.959Z,13.49
2017-09-13T09:16:54.285Z,13.57
2017-09-13T09:17:53.996Z,13.52
2017-09-13T09:18:54.325Z,13.51
2017-09-13T09:19:54.047Z,13.54
2017-09-13T09:20:54.378Z,13.44
2017-09-13T09:22:54.407Z,13.54
2017-09-13T09:23:54.486Z,13.6
2017-09-13T09:24:54.458Z,13.6
2017-09-13T09:25:54.156Z,13.64
2017-09-13T09:26:54.497Z,13.63
2017-09-13T09:27:54.529Z,13.67
2017-09-13T09:28:54.552Z,13.64
2017-09-13T09:29:54.561Z,13.66
2017-09-13T09:30:54.587Z,13.67
2017-09-13T09:31:54.294Z,13.69
2017-09-13T09:32:54.616Z,13.69
2017-09-13T09:34:09.262Z,13.64
2017-09-13T09:34:54.353Z,13.69
2017-09-13T09:35:54.692Z,13.67
2017-09-13T09:36:54.718Z,13.71
2017-09-13T09:38:09.353Z,13.75
2017-09-13T09:39:54.779Z,13.79
2017-09-13T09:41:09.407Z,13.71
2017-09-13T09:41:54.504Z,13.77
2017-09-13T09:42:54.536Z,13.81
2017-09-13T09:43:54.581Z,13.78
2017-09-13T09:45:54.596Z,13.85
2017-09-13T09:46:54.931Z,13.77
2017-09-13T09:47:54.700Z,13.73
2017-09-13T09:48:54.972Z,13.85
2017-09-13T09:49:54.686Z,13.84
2017-09-13T09:50:54.701Z,13.88
2017-09-13T09:51:54.728Z,13.87
2017-09-13T09:52:54.746Z,13.97
2017-09-13T09:54:09.701Z,14.04
2017-09-13T09:54:54.486Z,14.07
2017-09-13T09:55:54.805Z,14.15
2017-09-13T09:56:55.157Z,14.14
2017-09-13T09:57:55.169Z,14.24
2017-09-13T09:59:09.491Z,14.22
2017-09-13T09:59:55.223Z,14.27
2017-09-13T10:00:55.223Z,14.33
2017-09-13T10:01:55.260Z,14.39
2017-09-13T10:02:54.660Z,14.47
2017-09-13T10:03:55.301Z,14.46
2017-09-13T10:04:55.321Z,14.51
2017-09-13T10:05:55.345Z,14.51
2017-09-13T10:06:55.355Z,14.6
2017-09-13T10:07:55.393Z,14.73
2017-09-13T10:08:54.797Z,14.99
2017-09-13T10:10:10.094Z,15.25
2017-09-13T10:10:55.145Z,15.28
2017-09-13T10:11:55.165Z,15.47
2017-09-13T10:12:55.185Z,15.53
2017-09-13T10:13:55.529Z,15.47
2017-09-13T10:14:55.625Z,15.57
2017-09-13T10:15:55.578Z,15.64
2017-09-13T10:16:55.576Z,15.83
2017-09-13T10:17:55.611Z,15.92
2017-09-13T10:18:55.316Z,15.97
2017-09-13T10:19:55.656Z,16.27
2017-09-13T10:20:55.691Z,16.27
2017-09-13T10:21:55.386Z,16.21
2017-09-13T10:23:55.476Z,16.15
2017-09-13T10:24:55.764Z,16.27
2017-09-13T10:26:10.411Z,16.3
2017-09-13T10:26:55.509Z,16.3
2017-09-13T10:27:55.841Z,16.27
2017-09-13T10:28:55.865Z,16.28
2017-09-13T10:29:55.911Z,16.33
2017-09-13T10:30:55.903Z,16.35
2017-09-13T10:31:55.936Z,16.56
2017-09-13T10:32:55.959Z,16.6
2017-09-13T10:33:55.992Z,16.64
2017-09-13T10:34:56.017Z,16.64
2017-09-13T10:35:56.024Z,16.83
2017-09-13T10:36:56.058Z,16.82
2017-09-13T10:37:56.124Z,16.73
2017-09-13T10:38:56.096Z,16.67
2017-09-13T10:39:56.121Z,16.68
2017-09-13T10:41:10.761Z,16.82
2017-09-13T10:41:56.228Z,16.83
2017-09-13T10:43:55.914Z,16.89
2017-09-13T10:44:56.253Z,16.89
2017-09-13T10:45:56.276Z,16.83
2017-09-13T10:47:56.306Z,16.98
2017-09-13T10:48:56.347Z,16.88
2017-09-13T10:49:56.370Z,17.01
2017-09-13T10:50:56.399Z,16.98
2017-09-13T10:51:56.413Z,17.04
2017-09-13T10:52:56.130Z,17.15
2017-09-13T10:53:56.460Z,17.12
2017-09-13T10:54:56.482Z,17.12
2017-09-13T10:55:56.508Z,16.94
2017-09-13T10:56:56.534Z,16.88
2017-09-13T10:58:56.624Z,16.82
2017-09-13T10:59:56.619Z,17.01
2017-09-13T11:00:56.316Z,17.06
2017-09-13T11:01:56.344Z,17.21
2017-09-13T11:02:56.364Z,17.58
2017-09-13T11:03:56.385Z,17.66
2017-09-13T11:04:56.408Z,17.68
2017-09-13T11:05:56.742Z,17.59
2017-09-13T11:06:56.757Z,17.55
2017-09-13T11:07:56.793Z,17.7
2017-09-13T11:08:56.819Z,17.77
2017-09-13T11:09:56.842Z,17.82
2017-09-13T11:10:56.566Z,17.84
2017-09-13T11:11:56.888Z,17.81
2017-09-13T11:13:11.535Z,17.93
2017-09-13T11:13:56.930Z,17.89
2017-09-13T11:14:56.946Z,18.05
2017-09-13T11:15:56.996Z,17.99
2017-09-13T11:16:56.702Z,18.1
2017-09-13T11:17:57.028Z,18.07
2017-09-13T11:18:57.063Z,18.11
2017-09-13T11:20:57.108Z,18.18
2017-09-13T11:22:11.745Z,18.37
2017-09-13T11:22:57.153Z,18.41
2017-09-13T11:23:57.169Z,18.37
2017-09-13T11:24:57.207Z,18.45
2017-09-13T11:25:57.221Z,18.36
2017-09-13T11:26:57.235Z,18.3
2017-09-13T11:27:57.297Z,18.39
2017-09-13T11:29:11.917Z,18.45
2017-09-13T11:29:57.320Z,18.45
2017-09-13T11:30:57.028Z,18.42
2017-09-13T11:31:57.363Z,18.47
2017-09-13T11:32:57.392Z,18.52
2017-09-13T11:33:57.109Z,18.58
2017-09-13T11:34:57.120Z,18.75
2017-09-13T11:36:57.174Z,18.91
2017-09-13T11:38:12.130Z,18.85
2017-09-13T11:38:56.920Z,18.91
2017-09-13T11:39:57.572Z,19.16
2017-09-13T11:40:57.572Z,19.21
2017-09-13T11:41:57.293Z,19.06
2017-09-13T11:43:11.942Z,18.94
2017-09-13T11:43:57.641Z,18.91
2017-09-13T11:45:12.299Z,19.16
2017-09-13T11:45:57.694Z,19.25
2017-09-13T11:46:57.734Z,19.43
2017-09-13T11:47:57.128Z,19.29
2017-09-13T11:48:57.771Z,19.33
2017-09-13T11:49:57.803Z,19.4
2017-09-13T11:50:57.829Z,19.29
2017-09-13T11:51:57.854Z,19.18
2017-09-13T11:52:57.559Z,19.11
2017-09-13T11:53:57.590Z,19.08
2017-09-13T11:54:57.913Z,19.19
2017-09-13T11:55:57.950Z,19.19
2017-09-13T11:56:57.971Z,19.19
2017-09-13T11:57:57.994Z,19.18
2017-09-13T11:58:57.762Z,19.25
2017-09-13T11:59:58.044Z,19.33
2017-09-13T12:01:12.678Z,19.18
2017-09-13T12:01:57.777Z,19.13
2017-09-13T12:03:12.731Z,19.14
2017-09-13T12:03:58.190Z,19.23
2017-09-13T12:04:58.158Z,19.43
2017-09-13T12:05:58.187Z,19.58
2017-09-13T12:07:12.840Z,19.63
2017-09-13T12:07:58.239Z,19.74
2017-09-13T12:08:57.949Z,19.88
2017-09-13T12:09:58.293Z,19.94
2017-09-13T12:10:58.343Z,19.94
2017-09-13T12:11:58.335Z,19.94
2017-09-13T12:12:58.360Z,19.98
2017-09-13T12:13:58.387Z,19.74
2017-09-13T12:14:58.419Z,19.78
2017-09-13T12:16:13.049Z,19.8
2017-09-13T12:16:58.456Z,19.61
2017-09-13T12:17:58.507Z,19.63
2017-09-13T12:18:58.197Z,19.68
2017-09-13T12:19:58.531Z,19.63
2017-09-13T12:20:58.559Z,19.66
2017-09-13T12:21:58.593Z,19.48
2017-09-13T12:22:58.668Z,19.37
2017-09-13T12:23:58.628Z,19.32
2017-09-13T12:24:58.652Z,19.26
2017-09-13T12:25:58.676Z,19.37
2017-09-13T12:26:58.704Z,19.48
2017-09-13T12:27:58.411Z,19.47
2017-09-13T12:28:58.745Z,19.56
2017-09-13T12:29:58.790Z,19.8
2017-09-13T12:30:58.805Z,19.62
2017-09-13T12:31:58.509Z,19.63
2017-09-13T12:32:58.864Z,19.62
2017-09-13T12:33:58.880Z,19.63
2017-09-13T12:34:58.900Z,19.63
2017-09-13T12:35:58.917Z,19.62
2017-09-13T12:36:58.953Z,19.44
2017-09-13T12:37:58.666Z,19.36
2017-09-13T12:38:58.725Z,19.32
2017-09-13T12:39:59.023Z,19.43
2017-09-13T12:40:59.042Z,19.5
2017-09-13T12:41:59.064Z,19.55
2017-09-13T12:42:59.104Z,19.51
2017-09-13T12:44:13.741Z,19.55
2017-09-13T12:45:59.166Z,19.56
2017-09-13T12:46:59.195Z,19.46
2017-09-13T12:48:13.844Z,19.41
2017-09-13T12:48:59.252Z,19.36
2017-09-13T12:49:59.274Z,19.28
2017-09-13T12:50:59.319Z,19.33
2017-09-13T12:51:59.317Z,19.61
2017-09-13T12:52:59.346Z,19.56
2017-09-13T12:53:59.058Z,19.65
2017-09-13T12:54:59.380Z,19.56
2017-09-13T12:57:14.064Z,20.01
2017-09-13T12:57:59.475Z,20.11
2017-09-13T12:58:59.533Z,20.02
2017-09-13T12:59:59.521Z,20.03
2017-09-13T13:00:59.528Z,19.99
2017-09-13T13:01:59.560Z,19.86
2017-09-13T13:02:59.595Z,19.81
2017-09-13T13:04:14.246Z,19.8
2017-09-13T13:05:14.250Z,19.73
2017-09-13T13:05:59.661Z,19.88
2017-09-13T13:06:59.713Z,20.03
2017-09-13T13:07:59.708Z,19.98
2017-09-13T13:08:59.746Z,20.02
2017-09-13T13:09:59.441Z,20.1
2017-09-13T13:10:59.484Z,20.05
2017-09-13T13:11:59.814Z,19.95
2017-09-13T13:12:59.821Z,19.81
2017-09-13T13:13:59.863Z,19.69
2017-09-13T13:14:59.884Z,19.63
2017-09-13T13:15:59.913Z,19.5
2017-09-13T13:17:59.650Z,19.68
2017-09-13T13:18:59.981Z,19.73
2017-09-13T13:20:14.624Z,19.95
2017-09-13T13:21:00.019Z,20.05
2017-09-13T13:22:14.669Z,20.03
2017-09-13T13:23:00.074Z,20.16
2017-09-13T13:24:00.101Z,20.05
2017-09-13T13:25:00.121Z,20.08
2017-09-13T13:26:00.150Z,20.11
2017-09-13T13:27:00.184Z,20.14
2017-09-13T13:27:59.884Z,20.13
2017-09-13T13:29:00.239Z,20.16
2017-09-13T13:30:00.249Z,20.2
2017-09-13T13:30:59.969Z,20.24
2017-09-13T13:32:00.306Z,20.18
2017-09-13T13:33:00.323Z,20.08
2017-09-13T13:34:14.963Z,20.24
2017-09-13T13:35:00.381Z,20.1